createdAt,value
2023-02-01T00:10:58.704Z,10.47
2023-02-01T00:22:59.087Z,10.46
2023-02-01T00:34:58.627Z,10.46
2023-02-01T00:46:58.700Z,10.46
2023-02-01T00:58:58.669Z,10.46
2023-02-01T01:10:58.697Z,10.46
2023-02-01T01:22:58.635Z,10.46
2023-02-01T01:34:58.705Z,10.44
2023-02-01T01:46:58.836Z,10.45
2023-02-01T01:58:58.622Z,10.45
2023-02-01T02:10:58.737Z,10.45
2023-02-01T02:22:58.617Z,10.44
2023-02-01T02:34:58.637Z,10.44
2023-02-01T02:46:58.621Z,10.44
2023-02-01T02:58:58.705Z,10.44
2023-02-01T03:10:58.701Z,10.44
2023-02-01T03:22:58.617Z,10.43
2023-02-01T03:34:58.706Z,10.44
2023-02-01T03:46:58.729Z,10.43
2023-02-01T03:58:58.727Z,10.43
2023-02-01T04:10:58.723Z,10.43
2023-02-01T04:22:58.614Z,10.42
2023-02-01T04:34:58.619Z,10.43
2023-02-01T04:46:58.639Z,10.43
2023-02-01T04:58:58.718Z,10.43
2023-02-01T05:10:58.712Z,10.42
2023-02-01T05:22:58.707Z,10.42
2023-02-01T05:34:58.739Z,10.42
2023-02-01T05:46:58.708Z,10.42
2023-02-01T05:58:58.746Z,10.41
2023-02-01T06:10:58.727Z,10.42
2023-02-01T06:22:58.720Z,10.42
2023-02-01T06:34:58.730Z,10.42
2023-02-01T06:46:58.839Z,10.41
2023-02-01T06:58:58.730Z,10.41
2023-02-01T07:10:58.621Z,10.41
2023-02-01T07:22:58.632Z,10.41
2023-02-01T07:34:58.676Z,10.41
2023-02-01T07:46:58.733Z,10.40
2023-02-01T07:58:59.600Z,10.41
2023-02-01T08:10:58.643Z,10.40
2023-02-01T08:22:58.699Z,10.40
2023-02-01T08:34:58.733Z,10.41
2023-02-01T08:46:58.741Z,10.40
2023-02-01T08:58:58.718Z,10.40
2023-02-01T09:10:58.703Z,10.40
2023-02-01T09:22:58.731Z,10.40
2023-02-01T09:34:58.703Z,10.40
2023-02-01T09:46:58.708Z,10.40
2023-02-01T09:58:58.698Z,10.40
2023-02-01T10:10:58.737Z,10.40
2023-02-01T10:23:22.731Z,10.40
2023-02-01T10:34:58.731Z,10.40
2023-02-01T10:46:58.646Z,10.40
2023-02-01T10:58:58.618Z,10.40
2023-02-01T11:10:58.617Z,10.40
2023-02-01T11:22:58.699Z,10.41
2023-02-01T11:34:58.729Z,10.42
2023-02-01T11:46:58.733Z,10.42
2023-02-01T11:58:58.712Z,10.41
2023-02-01T12:10:58.618Z,10.42
2023-02-01T12:22:58.625Z,10.42
2023-02-01T12:34:58.622Z,10.42
2023-02-01T12:46:58.632Z,10.42
2023-02-01T12:58:58.711Z,10.42
2023-02-01T13:10:58.619Z,10.42
2023-02-01T13:22:58.645Z,10.42
2023-02-01T13:34:58.741Z,10.42
2023-02-01T13:46:58.716Z,10.41
2023-02-01T13:58:58.724Z,10.41
2023-02-01T14:10:58.633Z,10.41
2023-02-01T14:22:58.673Z,10.41
2023-02-01T14:34:58.678Z,10.40
2023-02-01T14:46:58.738Z,10.40
2023-02-01T14:58:58.765Z,10.40
2023-02-01T15:10:58.619Z,10.40
2023-02-01T15:22:58.621Z,10.40
2023-02-01T15:34:58.662Z,10.40
2023-02-01T15:46:58.644Z,10.40
2023-02-01T15:58:58.653Z,10.39
2023-02-01T16:10:58.655Z,10.39
2023-02-01T16:22:58.719Z,10.39
2023-02-01T16:34:58.736Z,10.39
2023-02-01T16:46:58.709Z,10.39
2023-02-01T16:58:58.647Z,10.39
2023-02-01T17:10:58.704Z,10.39
2023-02-01T17:22:58.691Z,10.38
2023-02-01T17:34:58.746Z,10.38
2023-02-01T17:46:58.739Z,10.38
2023-02-01T17:58:58.685Z,10.38
2023-02-01T18:10:58.749Z,10.38
2023-02-01T18:22:58.642Z,10.37
2023-02-01T18:35:01.166Z,10.38
2023-02-01T18:46:58.725Z,10.38
2023-02-01T18:58:58.728Z,10.37
2023-02-01T19:10:58.738Z,10.37
2023-02-01T19:22:58.717Z,10.37
2023-02-01T19:34:58.700Z,10.37
2023-02-01T19:46:58.712Z,10.36
2023-02-01T19:58:58.619Z,10.37
2023-02-01T20:10:57.860Z,10.37
2023-02-01T20:22:57.765Z,10.36
2023-02-01T20:34:58.940Z,10.36
2023-02-01T20:46:58.893Z,10.36
2023-02-01T20:58:58.655Z,10.36
2023-02-01T21:10:58.735Z,10.36
2023-02-01T21:22:58.662Z,10.35
2023-02-01T21:34:58.775Z,10.35
2023-02-01T21:46:58.665Z,10.36
2023-02-01T21:58:58.661Z,10.36
2023-02-01T22:10:58.763Z,10.35
2023-02-01T22:22:58.643Z,10.35
2023-02-01T22:34:58.742Z,10.35
2023-02-01T22:46:58.722Z,10.34
2023-02-01T22:58:58.624Z,10.34
2023-02-01T23:10:58.622Z,10.35
2023-02-01T23:22:58.612Z,10.34
2023-02-01T23:34:58.706Z,10.34
2023-02-01T23:46:58.668Z,10.34
2023-02-01T23:58:58.652Z,10.34
